Time;durP1;ratioP1;P1;durP2;ratioP2;P2;SDS_P1;SDS_P2;PMS_P1;PMS_P2;Temp;Humidity;BMP_temperature;BMP_pressure;BME280_temperature;BME280_humidity;BME280_pressure;Samples;Min_cycle;Max_cycle;Signal;HPM_P1;HPM_P2
2023/12/18 02:01:06;;;;;;;10.32;8.55;;;2.80;99.90;;;;;;5016973;28;20300;-83
2023/12/18 02:03:33;;;;;;;9.10;8.18;;;2.80;99.90;;;;;;4993339;28;20249;-86
2023/12/18 02:05:59;;;;;;;11.45;8.30;;;2.30;99.90;;;;;;5025541;28;20659;-86
2023/12/18 02:08:25;;;;;;;8.73;7.90;;;2.30;99.90;;;;;;5029483;28;20275;-88
2023/12/18 02:10:52;;;;;;;10.03;8.23;;;2.20;99.90;;;;;;5023979;28;20179;-89
2023/12/18 02:13:18;;;;;;;8.98;8.15;;;2.50;99.90;;;;;;4997418;28;20486;-89
2023/12/18 02:15:43;;;;;;;9.43;8.40;;;3.00;99.90;;;;;;5012279;28;20183;-86
2023/12/18 02:18:09;;;;;;;10.30;9.23;;;2.90;99.90;;;;;;5010775;28;20186;-88
2023/12/18 02:20:40;;;;;;;8.73;7.82;;;3.10;99.90;;;;;;5013331;28;20281;-88
2023/12/18 02:23:05;;;;;;;8.20;7.30;;;3.40;99.90;;;;;;5007841;28;20188;-88
2023/12/18 02:25:31;;;;;;;8.87;7.80;;;3.40;99.90;;;;;;5006439;28;20761;-88
2023/12/18 02:27:56;;;;;;;8.07;7.27;;;3.60;99.90;;;;;;5002734;28;20215;-88
2023/12/18 02:30:24;;;;;;;8.60;7.80;;;3.20;99.90;;;;;;5009321;28;20200;-88
2023/12/18 02:32:51;;;;;;;9.40;8.50;;;3.30;99.90;;;;;;5005961;28;20250;-87
2023/12/18 02:35:16;;;;;;;8.07;7.18;;;3.30;99.90;;;;;;5013840;28;20203;-88
2023/12/18 02:37:42;;;;;;;8.55;7.72;;;3.10;99.90;;;;;;5009762;28;20713;-86
2023/12/18 02:40:08;;;;;;;8.20;7.40;;;3.10;99.90;;;;;;5007800;28;20242;-87
2023/12/18 02:42:34;;;;;;;8.50;7.57;;;3.40;99.90;;;;;;4992155;28;20238;-88
2023/12/18 02:45:02;;;;;;;8.35;6.97;;;3.30;99.90;;;;;;4992457;28;20885;-88
2023/12/18 02:47:28;;;;;;;7.85;7.05;;;3.70;99.90;;;;;;5031927;28;20307;-88
2023/12/18 02:49:53;;;;;;;8.60;7.70;;;3.70;99.90;;;;;;5019711;28;20173;-88
2023/12/18 02:52:19;;;;;;;7.93;7.13;;;3.30;99.90;;;;;;5007992;28;20190;-88
2023/12/18 02:54:44;;;;;;;7.23;6.53;;;3.70;99.90;;;;;;5014710;28;20209;-88
2023/12/18 02:57:10;;;;;;;10.10;6.93;;;3.50;99.90;;;;;;5011647;28;20219;-88
2023/12/18 02:59:35;;;;;;;8.63;7.67;;;3.30;99.90;;;;;;5017722;28;20230;-88
2023/12/18 03:02:01;;;;;;;7.57;6.83;;;3.80;99.90;;;;;;5004695;28;20825;-88
2023/12/18 03:04:26;;;;;;;6.43;5.80;;;4.00;99.90;;;;;;5014910;28;20300;-88
2023/12/18 03:06:52;;;;;;;7.20;6.50;;;3.90;99.90;;;;;;5015734;28;20668;-86
2023/12/18 03:09:18;;;;;;;6.40;5.80;;;3.20;99.90;;;;;;4985295;28;20222;-88
2023/12/18 03:11:44;;;;;;;7.07;6.07;;;3.80;99.90;;;;;;5010020;28;20270;-88
2023/12/18 03:14:10;;;;;;;6.38;5.78;;;3.40;99.90;;;;;;4993420;28;20218;-88
2023/12/18 03:16:37;;;;;;;6.43;5.90;;;3.40;99.90;;;;;;5005399;28;20184;-88
2023/12/18 03:19:02;;;;;;;6.43;5.82;;;3.40;99.90;;;;;;5017337;28;20279;-88
2023/12/18 03:21:28;;;;;;;6.83;6.13;;;3.40;99.90;;;;;;5009877;28;20240;-88
2023/12/18 03:23:53;;;;;;;7.97;5.60;;;3.40;99.90;;;;;;5033170;28;20235;-88
2023/12/18 03:26:19;;;;;;;6.50;5.80;;;3.60;99.90;;;;;;5038845;28;20184;-88
2023/12/18 03:28:45;;;;;;;7.53;6.37;;;3.40;99.90;;;;;;5008125;28;20278;-88
2023/12/18 03:31:10;;;;;;;7.70;6.50;;;3.40;99.90;;;;;;5012407;28;20192;-87
2023/12/18 03:33:36;;;;;;;7.13;6.00;;;3.60;99.90;;;;;;5015518;28;20458;-86
2023/12/18 03:36:03;;;;;;;6.63;5.97;;;4.00;99.90;;;;;;5014226;28;20184;-88
2023/12/18 03:38:29;;;;;;;6.32;5.72;;;3.40;99.90;;;;;;5012658;28;20196;-88
2023/12/18 03:40:56;;;;;;;7.13;6.30;;;3.30;99.90;;;;;;5018432;28;20201;-88
2023/12/18 03:43:24;;;;;;;8.27;6.50;;;3.60;99.90;;;;;;5019710;28;20219;-88
2023/12/18 03:45:49;;;;;;;7.70;6.70;;;3.20;99.90;;;;;;4989918;28;20188;-88
2023/12/18 03:48:15;;;;;;;6.50;5.90;;;3.60;99.90;;;;;;5013835;28;20212;-86
2023/12/18 03:50:42;;;;;;;6.35;5.75;;;3.90;99.90;;;;;;5018806;28;20180;-87
2023/12/18 03:53:08;;;;;;;6.10;5.50;;;3.40;99.90;;;;;;4997414;28;20219;-88
2023/12/18 03:55:34;;;;;;;6.38;5.78;;;3.30;99.90;;;;;;4997784;28;20643;-88
2023/12/18 03:58:00;;;;;;;7.75;6.95;;;3.80;99.90;;;;;;5016920;28;20262;-87
2023/12/18 04:00:26;;;;;;;7.63;6.50;;;3.30;99.90;;;;;;5017617;28;20315;-87
2023/12/18 04:02:52;;;;;;;7.13;6.43;;;3.30;99.90;;;;;;5014407;28;20199;-88
2023/12/18 04:05:19;;;;;;;7.43;6.50;;;3.70;99.90;;;;;;5026669;28;20204;-88
2023/12/18 04:07:45;;;;;;;5.80;5.22;;;3.40;99.90;;;;;;5009962;28;20198;-88
2023/12/18 04:10:11;;;;;;;6.07;5.57;;;3.20;99.90;;;;;;5045950;28;20186;-87
2023/12/18 04:12:37;;;;;;;6.68;6.07;;;3.20;99.90;;;;;;5019846;28;20591;-87
2023/12/18 04:15:04;;;;;;;6.80;6.20;;;3.70;99.90;;;;;;4994785;28;20699;-88
2023/12/18 04:17:30;;;;;;;5.70;5.15;;;3.30;99.90;;;;;;5020369;28;20194;-88
2023/12/18 04:19:55;;;;;;;6.57;5.87;;;3.60;99.90;;;;;;5017905;28;20193;-87
2023/12/18 04:22:21;;;;;;;7.87;6.60;;;2.90;99.90;;;;;;5017906;28;20188;-88
2023/12/18 04:24:46;;;;;;;5.77;5.20;;;3.00;99.90;;;;;;5012745;28;20802;-88
2023/12/18 04:27:12;;;;;;;6.63;5.90;;;3.10;99.90;;;;;;5015304;28;20198;-88
2023/12/18 04:29:38;;;;;;;6.53;5.43;;;2.80;99.90;;;;;;5009471;28;20206;-88
2023/12/18 04:32:05;;;;;;;6.60;5.90;;;3.30;99.90;;;;;;5013982;28;20187;-88
2023/12/18 04:34:30;;;;;;;6.22;5.63;;;3.10;99.90;;;;;;5011837;28;20461;-88
2023/12/18 04:36:56;;;;;;;9.10;6.23;;;3.40;99.90;;;;;;5017271;28;20183;-88
2023/12/18 04:39:22;;;;;;;7.53;6.80;;;3.10;99.90;;;;;;5039687;28;20175;-88
2023/12/18 04:41:47;;;;;;;7.60;6.80;;;2.90;99.90;;;;;;5043049;28;20183;-88
2023/12/18 04:44:13;;;;;;;6.10;5.50;;;2.70;99.90;;;;;;5012818;28;20214;-88
2023/12/18 04:46:39;;;;;;;6.67;5.80;;;3.10;99.90;;;;;;5000967;28;20642;-88
2023/12/18 04:49:05;;;;;;;6.97;6.07;;;2.70;99.90;;;;;;5014342;28;20477;-88
2023/12/18 04:51:30;;;;;;;5.77;5.20;;;2.30;99.90;;;;;;5014781;28;20187;-88
2023/12/18 04:53:56;;;;;;;6.57;5.80;;;2.70;99.90;;;;;;5012451;28;20872;-88
2023/12/18 04:56:22;;;;;;;6.17;5.57;;;3.10;99.90;;;;;;5013613;28;20168;-87
2023/12/18 04:58:47;;;;;;;7.95;6.05;;;2.60;99.90;;;;;;5011622;28;20227;-88
2023/12/18 05:01:13;;;;;;;6.00;5.47;;;2.60;99.90;;;;;;5021137;28;20225;-88
2023/12/18 05:03:39;;;;;;;7.00;5.90;;;2.00;99.90;;;;;;5011217;28;20238;-88
2023/12/18 05:06:04;;;;;;;7.17;6.47;;;2.40;99.90;;;;;;5013200;28;20636;-88
2023/12/18 05:08:30;;;;;;;7.27;5.70;;;2.50;99.90;;;;;;4998777;28;20213;-88
2023/12/18 05:10:57;;;;;;;8.63;6.57;;;2.80;99.90;;;;;;5010183;28;20183;-87
2023/12/18 05:13:22;;;;;;;6.70;5.60;;;2.60;99.90;;;;;;5016890;28;20182;-87
2023/12/18 05:15:49;;;;;;;8.60;6.43;;;2.70;99.90;;;;;;5019924;28;20190;-87
2023/12/18 05:18:15;;;;;;;7.70;6.05;;;2.70;99.90;;;;;;5027392;28;20197;-87
2023/12/18 05:20:40;;;;;;;7.20;6.00;;;2.60;99.90;;;;;;5012416;28;20185;-87
2023/12/18 05:23:06;;;;;;;5.90;4.80;;;2.40;99.90;;;;;;5012957;28;20187;-87
2023/12/18 05:25:31;;;;;;;6.77;6.07;;;2.50;99.90;;;;;;5008666;28;20199;-86
2023/12/18 05:27:58;;;;;;;6.40;5.80;;;2.50;99.90;;;;;;5004770;28;20207;-87
2023/12/18 05:30:23;;;;;;;7.20;6.22;;;4.30;99.90;;;;;;5020601;28;20183;-86
2023/12/18 05:32:49;;;;;;;9.73;6.60;;;;;;;;;;5003378;28;20546;-87
2023/12/18 05:35:15;;;;;;;8.32;7.50;;;2.30;99.90;;;;;;5020674;28;20208;-87
2023/12/18 05:37:40;;;;;;;7.67;6.83;;;2.30;99.90;;;;;;5025927;28;20186;-87
2023/12/18 05:40:07;;;;;;;6.03;5.53;;;4.10;99.90;;;;;;5039375;28;20187;-87
2023/12/18 05:42:32;;;;;;;6.40;5.82;;;2.10;99.90;;;;;;5020375;28;20185;-85
2023/12/18 05:44:58;;;;;;;6.53;5.90;;;;;;;;;;5025273;28;20767;-86
2023/12/18 05:47:24;;;;;;;7.45;6.10;;;;;;;;;;5013371;28;20187;-87
2023/12/18 05:49:50;;;;;;;7.15;5.55;;;2.10;99.90;;;;;;5021300;28;20193;-86
2023/12/18 05:52:15;;;;;;;8.73;6.90;;;2.20;99.90;;;;;;5020408;28;20189;-86
2023/12/18 05:54:41;;;;;;;11.13;6.83;;;1.50;99.90;;;;;;5019894;28;20229;-87
2023/12/18 05:57:07;;;;;;;6.83;5.60;;;;;;;;;;5018318;28;20363;-87
2023/12/18 05:59:33;;;;;;;7.18;6.47;;;2.30;99.90;;;;;;5018498;28;20202;-87
2023/12/18 06:02:00;;;;;;;7.70;5.87;;;;;;;;;;5017956;28;20195;-87
2023/12/18 06:04:25;;;;;;;7.28;6.00;;;2.30;99.90;;;;;;5022982;28;20218;-87
2023/12/18 06:06:51;;;;;;;6.13;5.40;;;3.90;99.90;;;;;;5022747;28;20198;-86
2023/12/18 06:09:17;;;;;;;6.40;5.27;;;;;;;;;;5015414;28;20374;-86
2023/12/18 06:11:42;;;;;;;6.30;5.80;;;1.90;99.90;;;;;;5003550;28;20192;-87
2023/12/18 06:14:08;;;;;;;6.40;5.80;;;1.80;99.90;;;;;;5017298;28;20560;-87
2023/12/18 06:16:34;;;;;;;6.47;5.37;;;;;;;;;;5017985;28;20178;-87
2023/12/18 06:19:00;;;;;;;9.00;6.70;;;2.20;99.90;;;;;;4987242;28;20186;-86
2023/12/18 06:21:26;;;;;;;6.07;5.47;;;1.40;99.90;;;;;;4998086;28;20210;-87
2023/12/18 06:23:52;;;;;;;7.00;6.30;;;2.10;99.90;;;;;;5015172;28;20443;-87
2023/12/18 06:26:18;;;;;;;9.80;7.43;;;;;;;;;;5021001;28;20549;-85
2023/12/18 06:28:43;;;;;;;6.20;5.60;;;2.30;99.90;;;;;;5001145;28;20649;-85
2023/12/18 06:31:09;;;;;;;6.83;6.13;;;;;;;;;;5024917;28;20187;-86
2023/12/18 06:33:35;;;;;;;6.53;5.65;;;2.20;99.90;;;;;;5028529;28;20176;-86
2023/12/18 06:36:00;;;;;;;7.23;6.10;;;3.10;99.90;;;;;;5025137;28;20651;-86
2023/12/18 06:38:27;;;;;;;7.17;6.47;;;;;;;;;;5016567;28;20198;-85
2023/12/18 06:40:55;;;;;;;6.70;5.70;;;2.10;99.90;;;;;;5028426;28;20206;-86
2023/12/18 06:43:21;;;;;;;7.60;6.05;;;;;;;;;;5009296;28;20199;-85
2023/12/18 06:45:46;;;;;;;7.30;6.60;;;2.30;99.90;;;;;;5026539;28;20194;-85
2023/12/18 06:48:12;;;;;;;6.53;5.93;;;;;;;;;;5025551;28;20522;-86
2023/12/18 06:50:38;;;;;;;6.20;5.37;;;2.00;99.90;;;;;;5010289;28;20207;-86
2023/12/18 06:53:04;;;;;;;8.83;5.10;;;2.30;99.90;;;;;;5021430;28;20452;-85
2023/12/18 06:55:31;;;;;;;7.10;6.20;;;3.60;99.90;;;;;;5020531;28;20228;-85
2023/12/18 06:57:57;;;;;;;10.38;7.43;;;1.90;99.90;;;;;;5013614;28;20182;-85
2023/12/18 07:00:22;;;;;;;7.60;6.60;;;1.60;99.90;;;;;;5034950;28;20209;-85
2023/12/18 07:02:48;;;;;;;6.20;5.60;;;4.00;99.90;;;;;;5023466;28;20183;-85
2023/12/18 07:05:16;;;;;;;6.43;5.80;;;;;;;;;;5028691;28;20214;-84
2023/12/18 07:07:42;;;;;;;8.65;6.82;;;2.20;99.90;;;;;;5014464;28;20255;-83
2023/12/18 07:10:08;;;;;;;5.83;5.27;;;2.30;99.90;;;;;;5008140;28;20167;-83
2023/12/18 07:12:36;;;;;;;9.03;6.43;;;3.90;99.90;;;;;;5035346;28;20175;-83
2023/12/18 07:15:01;;;;;;;8.02;6.35;;;3.00;99.90;;;;;;5021221;28;20192;-83
2023/12/18 07:17:27;;;;;;;7.73;6.60;;;2.10;99.90;;;;;;5024290;28;20257;-83
2023/12/18 07:19:53;;;;;;;7.90;6.40;;;-0.20;99.90;;;;;;5001789;28;20178;-83
2023/12/18 07:22:20;;;;;;;8.87;6.83;;;1.40;99.90;;;;;;5022810;28;20166;-84
2023/12/18 07:24:46;;;;;;;11.57;7.00;;;2.60;99.90;;;;;;5037209;28;20239;-82
2023/12/18 07:27:14;;;;;;;10.97;8.20;;;;;;;;;;5034493;28;20171;-84
2023/12/18 07:29:40;;;;;;;6.95;6.20;;;2.30;99.90;;;;;;5007124;28;20212;-84
2023/12/18 07:32:06;;;;;;;7.93;7.07;;;4.00;99.90;;;;;;5014754;28;20744;-82
2023/12/18 07:34:32;;;;;;;7.53;6.55;;;2.30;99.90;;;;;;5022587;28;20266;-84
2023/12/18 07:36:57;;;;;;;13.03;6.73;;;2.50;99.90;;;;;;4994198;28;20216;-84
2023/12/18 07:39:23;;;;;;;8.37;6.73;;;2.30;99.90;;;;;;5011549;28;20975;-83
2023/12/18 07:41:49;;;;;;;8.60;6.63;;;;;;;;;;5023490;28;20666;-83
2023/12/18 07:44:15;;;;;;;7.88;6.70;;;2.10;99.90;;;;;;5010617;28;20290;-83
2023/12/18 07:46:40;;;;;;;9.43;6.20;;;2.10;99.90;;;;;;5024045;28;20208;-82
2023/12/18 07:49:06;;;;;;;7.40;6.60;;;1.90;99.90;;;;;;5005533;28;20495;-85
2023/12/18 07:51:33;;;;;;;6.87;6.00;;;2.60;99.90;;;;;;5025563;28;20191;-85
2023/12/18 07:53:59;;;;;;;6.57;5.97;;;;;;;;;;5018951;28;20461;-86
2023/12/18 07:56:25;;;;;;;6.30;5.70;;;2.40;99.90;;;;;;5026188;28;20180;-85
2023/12/18 07:58:59;;;;;;;7.63;6.30;;;2.00;99.90;;;;;;5023323;28;20222;-83
2023/12/18 08:02:00;;;;;;;7.95;6.70;;;3.30;99.90;;;;;;5012816;28;20190;-82
2023/12/18 08:07:02;;;;;;;11.88;7.25;;;1.00;99.90;;;;;;5499355;22;20237;-85
2023/12/18 08:09:28;;;;;;;11.20;7.45;;;3.70;99.90;;;;;;5068809;28;20206;-84
2023/12/18 08:11:57;;;;;;;8.43;7.00;;;2.70;99.90;;;;;;5071023;28;20170;-83
2023/12/18 08:14:22;;;;;;;7.43;6.05;;;3.40;99.90;;;;;;5055731;28;20273;-83
2023/12/18 08:16:51;;;;;;;8.20;6.80;;;2.40;99.90;;;;;;5058117;28;20221;-83
2023/12/18 08:19:17;;;;;;;11.73;6.50;;;2.30;99.90;;;;;;5045096;28;20247;-84
2023/12/18 08:21:43;;;;;;;13.18;7.82;;;3.00;99.90;;;;;;5043640;28;20203;-83
2023/12/18 08:24:09;;;;;;;7.72;6.93;;;1.70;99.90;;;;;;5041300;28;20207;-83
2023/12/18 08:26:34;;;;;;;9.10;7.37;;;2.90;99.90;;;;;;5042325;28;20611;-84
2023/12/18 08:29:00;;;;;;;12.30;8.87;;;2.50;99.90;;;;;;5037561;28;20316;-83
2023/12/18 08:31:26;;;;;;;8.90;7.90;;;2.40;99.90;;;;;;5058095;28;20216;-83
2023/12/18 08:33:54;;;;;;;10.87;7.67;;;;;;;;;;5041218;28;20509;-83
2023/12/18 08:36:19;;;;;;;11.80;9.02;;;2.40;99.90;;;;;;5064947;28;20785;-83
2023/12/18 08:38:45;;;;;;;10.70;7.93;;;;;;;;;;5067214;28;20190;-84
2023/12/18 08:41:11;;;;;;;7.40;6.70;;;2.60;99.90;;;;;;5039803;28;20185;-83
2023/12/18 08:43:39;;;;;;;9.63;8.65;;;2.40;99.90;;;;;;5056763;28;20207;-84
2023/12/18 08:46:11;;;;;;;8.88;7.50;;;4.00;99.90;;;;;;5036887;28;20413;-82
2023/12/18 08:48:39;;;;;;;11.82;7.60;;;2.70;99.90;;;;;;5055838;28;20265;-84
2023/12/18 08:51:05;;;;;;;9.43;8.40;;;2.50;99.90;;;;;;5039455;28;20229;-84
2023/12/18 08:53:31;;;;;;;10.13;8.97;;;;;;;;;;5041542;28;20182;-84
2023/12/18 08:55:56;;;;;;;9.27;8.27;;;2.40;99.90;;;;;;5047332;28;20192;-84
2023/12/18 08:58:25;;;;;;;9.83;7.60;;;;;;;;;;5058062;28;20259;-84
2023/12/18 09:00:52;;;;;;;8.50;7.68;;;2.50;99.90;;;;;;5053242;28;20170;-85
2023/12/18 09:03:20;;;;;;;9.98;8.38;;;3.00;99.90;;;;;;5056373;28;20190;-85
2023/12/18 09:06:31;;;;;;;8.60;7.47;;;2.80;99.90;;;;;;5066187;28;20195;-84
2023/12/18 09:08:57;;;;;;;9.70;8.75;;;2.60;99.90;;;;;;5043076;28;20235;-84
2023/12/18 09:11:23;;;;;;;9.57;8.45;;;2.20;99.90;;;;;;5044475;28;20189;-83
2023/12/18 09:13:57;;;;;;;10.35;8.95;;;2.80;99.90;;;;;;5061362;28;20234;-85
2023/12/18 09:19:52;;;;;;;8.90;6.75;;;3.60;99.90;;;;;;5010921;28;20201;-84
2023/12/18 09:22:18;;;;;;;11.25;7.60;;;3.80;99.90;;;;;;5044547;28;20178;-83
2023/12/18 09:24:44;;;;;;;7.70;6.90;;;2.70;99.90;;;;;;5044056;28;20206;-83
2023/12/18 09:27:43;;;;;;;7.73;6.93;;;5.30;99.90;;;;;;5040518;28;20447;-83
2023/12/18 09:36:36;;;;;;;6.90;6.15;;;7.40;99.90;;;;;;6166647;22;20497;-84
2023/12/18 09:39:02;;;;;;;8.10;6.63;;;7.60;99.90;;;;;;5007421;28;20222;-88
2023/12/18 09:41:28;;;;;;;6.90;6.20;;;6.90;99.90;;;;;;5008788;28;20186;-89
2023/12/18 09:43:54;;;;;;;9.83;6.07;;;6.90;99.90;;;;;;4989775;28;20218;-88
2023/12/18 09:46:24;;;;;;;8.43;6.35;;;6.70;99.90;;;;;;4992748;28;20187;-88
2023/12/18 09:48:50;;;;;;;6.45;5.85;;;6.40;99.90;;;;;;4988579;28;20203;-85
2023/12/18 09:51:20;;;;;;;11.30;7.93;;;6.10;99.90;;;;;;4976322;28;20691;-86
2023/12/18 09:53:49;;;;;;;7.78;7.00;;;5.70;99.90;;;;;;4991939;28;20203;-85
2023/12/18 09:56:16;;;;;;;8.00;7.20;;;5.40;99.90;;;;;;4996082;28;20194;-86
2023/12/18 09:58:43;;;;;;;9.20;8.25;;;5.50;99.90;;;;;;5012369;28;20187;-87
2023/12/18 10:01:10;;;;;;;10.45;8.43;;;6.10;99.90;;;;;;5015838;28;20181;-85
2023/12/18 10:03:35;;;;;;;8.80;7.20;;;9.30;99.90;;;;;;5016081;28;20658;-87
2023/12/18 10:06:01;;;;;;;8.47;6.97;;;9.30;99.90;;;;;;4998852;28;20177;-86
2023/12/18 10:08:27;;;;;;;9.00;7.40;;;9.30;99.90;;;;;;4994185;28;20211;-87
2023/12/18 10:10:52;;;;;;;9.53;8.53;;;9.20;99.90;;;;;;4994942;28;20664;-87
2023/12/18 10:13:18;;;;;;;6.63;6.03;;;9.00;99.90;;;;;;4999955;28;20190;-88
2023/12/18 10:15:52;;;;;;;7.43;6.30;;;8.50;99.90;;;;;;4998367;28;20181;-88
2023/12/18 10:18:28;;;;;;;7.30;6.55;;;9.50;99.90;;;;;;4995935;28;20212;-89
2023/12/18 10:20:56;;;;;;;9.50;6.88;;;9.80;99.50;;;;;;5023456;28;20212;-87
2023/12/18 10:23:22;;;;;;;8.60;7.67;;;10.20;99.20;;;;;;4996172;28;20190;-86
2023/12/18 10:25:48;;;;;;;7.72;7.05;;;11.50;98.30;;;;;;5000298;28;20183;-86
2023/12/18 10:28:14;;;;;;;9.27;8.10;;;11.60;97.50;;;;;;4998977;28;20214;-87
2023/12/18 10:30:39;;;;;;;10.13;7.63;;;11.30;96.10;;;;;;5004229;28;20179;-85
2023/12/18 10:33:09;;;;;;;8.43;7.40;;;11.30;96.00;;;;;;5002284;28;20834;-87
2023/12/18 10:35:35;;;;;;;8.27;7.05;;;10.90;95.70;;;;;;4993488;28;20229;-89
2023/12/18 10:38:02;;;;;;;8.65;6.80;;;11.00;96.20;;;;;;4994239;28;20224;-89
2023/12/18 10:40:28;;;;;;;8.02;7.22;;;11.50;95.40;;;;;;5015304;28;20226;-87
2023/12/18 10:43:21;;;;;;;8.80;7.38;;;12.70;93.70;;;;;;4999486;28;20193;-88
2023/12/18 10:45:48;;;;;;;8.07;7.28;;;13.50;92.00;;;;;;4996625;28;20191;-87
2023/12/18 10:48:16;;;;;;;9.35;7.60;;;13.50;91.80;;;;;;4991878;28;20234;-87
2023/12/18 10:50:42;;;;;;;9.27;8.10;;;14.50;90.90;;;;;;4994543;28;20244;-88
2023/12/18 10:53:10;;;;;;;8.20;7.40;;;14.90;88.10;;;;;;5001110;28;20187;-87
2023/12/18 10:55:52;;;;;;;10.00;8.40;;;15.80;86.00;;;;;;4994489;28;20493;-88
2023/12/18 10:58:19;;;;;;;9.05;8.25;;;15.50;83.90;;;;;;4999770;28;20187;-87
2023/12/18 11:00:45;;;;;;;8.35;7.43;;;15.30;85.70;;;;;;4993986;28;20186;-87
2023/12/18 11:03:13;;;;;;;8.47;7.57;;;15.30;85.90;;;;;;4994432;28;20194;-86
2023/12/18 11:05:40;;;;;;;9.05;8.20;;;15.40;84.00;;;;;;5008715;28;20387;-86
2023/12/18 11:08:06;;;;;;;8.60;7.75;;;15.30;82.70;;;;;;4979159;28;20218;-87
2023/12/18 11:10:31;;;;;;;9.70;8.43;;;14.90;83.90;;;;;;4992503;28;20190;-86
2023/12/18 11:13:17;;;;;;;9.37;8.47;;;14.30;85.60;;;;;;4992736;28;20449;-87
2023/12/18 11:16:16;;;;;;;9.48;8.05;;;13.90;85.50;;;;;;5016702;28;20437;-87
2023/12/18 11:19:10;;;;;;;13.23;11.77;;;13.60;87.00;;;;;;5011909;28;20187;-86
2023/12/18 11:21:36;;;;;;;11.30;10.10;;;12.50;87.80;;;;;;5017386;28;20280;-85
2023/12/18 11:24:03;;;;;;;11.50;10.33;;;12.10;90.40;;;;;;5000280;28;20545;-86
2023/12/18 11:26:30;;;;;;;11.32;9.35;;;11.20;91.50;;;;;;5001961;28;20511;-85
2023/12/18 11:28:58;;;;;;;10.40;9.40;;;11.30;92.20;;;;;;4993684;28;20638;-86
2023/12/18 11:31:24;;;;;;;12.13;9.95;;;11.70;91.50;;;;;;4999618;28;20270;-86
2023/12/18 11:34:02;;;;;;;11.17;10.07;;;11.60;91.30;;;;;;5001859;28;20237;-86
2023/12/18 11:36:29;;;;;;;11.52;10.32;;;12.30;90.80;;;;;;5016490;28;20210;-84
2023/12/18 11:38:57;;;;;;;11.37;8.93;;;12.00;90.70;;;;;;4998884;28;20222;-85
2023/12/18 11:41:45;;;;;;;10.75;9.55;;;11.70;90.90;;;;;;5001016;28;20473;-86
2023/12/18 11:44:11;;;;;;;10.80;9.65;;;11.80;91.70;;;;;;5000319;28;20210;-86
2023/12/18 11:46:38;;;;;;;11.73;10.60;;;10.90;91.90;;;;;;4997527;28;20192;-86
2023/12/18 11:49:06;;;;;;;11.07;10.00;;;10.90;92.60;;;;;;5001948;28;20514;-87
2023/12/18 11:51:32;;;;;;;11.98;10.75;;;10.60;93.00;;;;;;4995931;28;20190;-85
2023/12/18 11:54:01;;;;;;;11.03;9.93;;;10.20;93.80;;;;;;5006748;28;20208;-87
2023/12/18 11:56:28;;;;;;;12.50;10.73;;;9.80;94.40;;;;;;5002240;28;20193;-86
2023/12/18 11:58:54;;;;;;;10.95;9.85;;;9.90;94.50;;;;;;4993536;28;20234;-85
2023/12/18 12:01:20;;;;;;;11.70;10.50;;;11.10;93.90;;;;;;5004698;28;20209;-87
2023/12/18 12:03:46;;;;;;;14.60;12.57;;;11.40;93.60;;;;;;4999334;28;20203;-88
2023/12/18 12:06:14;;;;;;;11.77;10.57;;;11.00;92.00;;;;;;5000765;28;20597;-86
2023/12/18 12:08:46;;;;;;;12.85;11.07;;;11.50;92.60;;;;;;4995045;28;20498;-86
2023/12/18 12:11:12;;;;;;;12.45;10.70;;;11.80;92.10;;;;;;4997806;28;20217;-87
2023/12/18 12:13:38;;;;;;;11.50;10.30;;;11.60;91.70;;;;;;4997068;28;20202;-87
2023/12/18 12:16:04;;;;;;;11.90;10.70;;;12.20;91.60;;;;;;4997343;28;20183;-87
2023/12/18 12:18:31;;;;;;;12.10;10.90;;;12.30;91.30;;;;;;5002462;28;20273;-86
2023/12/18 12:20:57;;;;;;;11.43;10.23;;;12.20;91.40;;;;;;4997984;28;20480;-88
2023/12/18 12:26:22;;;;;;;;;;;;;;;;;;;;;
2023/12/18 12:28:54;;;;;;;13.00;11.70;;;14.20;94.60;;;;;;5052473;28;20229;-89
2023/12/18 12:31:25;;;;;;;13.98;12.50;;;11.40;94.40;;;;;;5035973;28;20181;-88
2023/12/18 12:33:51;;;;;;;12.80;11.57;;;11.10;93.70;;;;;;5028015;28;20217;-85
2023/12/18 12:36:20;;;;;;;15.10;11.82;;;10.60;95.40;;;;;;5015531;28;20196;-86
2023/12/18 12:38:46;;;;;;;14.35;12.85;;;10.70;95.60;;;;;;5009322;28;20290;-86
2023/12/18 12:41:12;;;;;;;12.50;10.90;;;11.30;97.30;;;;;;5009688;28;20211;-85
2023/12/18 12:43:38;;;;;;;13.10;10.80;;;10.20;97.30;;;;;;5003471;28;20527;-87
2023/12/18 12:46:05;;;;;;;11.93;10.83;;;11.70;98.90;;;;;;5015071;28;20442;-87
2023/12/18 12:48:34;;;;;;;12.38;11.07;;;9.80;98.90;;;;;;5011122;28;20211;-87
2023/12/18 12:51:00;;;;;;;12.98;10.98;;;11.60;99.70;;;;;;5010149;28;20187;-86
2023/12/18 12:53:27;;;;;;;13.43;12.02;;;9.70;99.60;;;;;;5022450;28;20283;-87
2023/12/18 12:55:54;;;;;;;12.55;11.25;;;10.70;99.90;;;;;;5013929;28;20206;-85
2023/12/18 12:58:21;;;;;;;14.18;12.68;;;10.20;99.90;;;;;;4999786;28;20187;-86
2023/12/18 13:01:05;;;;;;;;;;;;;;;;;;;;;
2023/12/18 13:03:31;;;;;;;13.45;12.02;;;9.40;99.90;;;;;;5019665;28;20277;-86
2023/12/18 13:05:58;;;;;;;14.37;11.00;;;;;;;;;;4981638;28;20305;-86
2023/12/18 13:08:24;;;;;;;14.50;13.10;;;9.30;99.90;;;;;;4996792;28;20207;-88
2023/12/18 13:10:50;;;;;;;23.23;12.40;;;;;;;;;;4978727;28;20275;-89
2023/12/18 13:13:17;;;;;;;15.80;12.27;;;;;;;;;;4993429;28;20286;-89
2023/12/18 13:15:43;;;;;;;13.90;12.60;;;9.00;99.90;;;;;;5008961;28;20187;-87
2023/12/18 13:18:09;;;;;;;11.87;10.63;;;;;;;;;;5001988;28;20187;-88
2023/12/18 13:20:35;;;;;;;12.23;10.93;;;8.90;99.90;;;;;;5005047;28;20227;-88
2023/12/18 13:23:27;;;;;;;14.85;11.25;;;9.50;99.90;;;;;;4998080;28;20189;-85
2023/12/18 13:25:52;;;;;;;13.95;11.93;;;9.30;99.90;;;;;;4992159;28;20541;-85
2023/12/18 13:28:18;;;;;;;13.33;12.03;;;;;;;;;;5001184;28;20277;-85
2023/12/18 13:30:44;;;;;;;13.05;11.65;;;8.70;99.90;;;;;;5012976;28;20183;-85
2023/12/18 13:33:09;;;;;;;12.30;10.93;;;9.50;99.90;;;;;;4999350;28;20648;-84
2023/12/18 13:35:35;;;;;;;13.77;11.80;;;;;;;;;;4998988;28;20209;-85
2023/12/18 13:38:01;;;;;;;12.38;11.20;;;8.60;99.90;;;;;;4997806;28;20290;-85
2023/12/18 13:40:28;;;;;;;13.90;12.50;;;9.00;99.90;;;;;;5003691;28;20277;-84
2023/12/18 13:42:54;;;;;;;14.25;11.93;;;7.80;99.90;;;;;;4998940;28;20963;-85
2023/12/18 13:45:19;;;;;;;13.90;12.43;;;9.60;99.90;;;;;;4998789;28;20207;-84
2023/12/18 13:47:45;;;;;;;14.07;12.00;;;;;;;;;;4997132;28;20283;-85
2023/12/18 13:50:11;;;;;;;11.98;10.77;;;8.40;99.90;;;;;;4998962;28;20191;-85
2023/12/18 13:52:38;;;;;;;13.57;12.17;;;;;;;;;;4997166;28;20172;-85
2023/12/18 13:55:05;;;;;;;13.82;12.43;;;8.10;99.90;;;;;;5010335;28;20198;-84
2023/12/18 13:57:31;;;;;;;13.65;11.95;;;8.20;99.90;;;;;;4996974;28;20187;-85
2023/12/18 13:59:56;;;;;;;15.10;10.80;;;8.50;99.90;;;;;;4998795;28;20384;-86
2023/12/18 14:02:23;;;;;;;12.40;10.93;;;;;;;;;;5009928;28;20301;-85
2023/12/18 14:04:48;;;;;;;11.95;10.60;;;8.40;99.90;;;;;;4999485;28;20207;-86
2023/12/18 14:07:14;;;;;;;11.50;10.30;;;;;;;;;;4997358;28;20202;-85
2023/12/18 14:09:40;;;;;;;12.03;10.47;;;8.10;99.90;;;;;;5005979;28;20215;-85
2023/12/18 14:12:08;;;;;;;12.15;10.95;;;9.10;99.90;;;;;;5008448;28;20442;-86
2023/12/18 14:14:34;;;;;;;13.55;12.27;;;8.50;99.90;;;;;;4992324;28;20207;-86
2023/12/18 14:17:00;;;;;;;12.57;10.77;;;;;;;;;;4996728;28;20210;-86
2023/12/18 14:19:46;;;;;;;11.45;10.30;;;8.10;99.90;;;;;;4997452;28;20183;-87
2023/12/18 14:22:21;;;;;;;;;;;;;;;;;;;;;
2023/12/18 14:24:49;;;;;;;13.05;11.70;;;8.20;99.90;;;;;;5013829;28;20590;-86
2023/12/18 14:27:18;;;;;;;13.45;12.15;;;8.90;99.90;;;;;;4956655;28;1233738;-86
2023/12/18 14:29:43;;;;;;;12.30;11.10;;;8.30;99.90;;;;;;5005610;28;20334;-85
2023/12/18 14:32:10;;;;;;;13.80;12.40;;;;;;;;;;4990996;28;20674;-87
2023/12/18 14:34:36;;;;;;;13.35;12.05;;;8.20;99.90;;;;;;4979228;28;20472;-86
2023/12/18 14:37:08;;;;;;;12.13;11.03;;;;;;;;;;4999891;28;20183;-86
2023/12/18 14:39:34;;;;;;;15.50;11.43;;;7.80;99.90;;;;;;4996815;28;20190;-86
2023/12/18 14:42:00;;;;;;;14.32;12.23;;;8.50;99.90;;;;;;5004835;28;20194;-86
2023/12/18 14:44:29;;;;;;;15.93;12.77;;;;;;;;;;4995901;28;20270;-86
2023/12/18 14:46:56;;;;;;;13.23;12.02;;;8.00;99.90;;;;;;5023452;28;20183;-87
2023/12/18 14:49:22;;;;;;;15.00;12.40;;;8.40;99.90;;;;;;4988377;28;20203;-87
2023/12/18 14:51:47;;;;;;;11.70;10.60;;;7.30;99.90;;;;;;4995982;28;20246;-86
2023/12/18 14:54:16;;;;;;;13.23;11.83;;;7.50;99.90;;;;;;4992646;28;20345;-88
2023/12/18 14:56:41;;;;;;;14.38;12.98;;;8.90;99.90;;;;;;4998138;28;20775;-86
2023/12/18 14:59:07;;;;;;;15.23;13.60;;;8.40;99.90;;;;;;4995933;28;20183;-87
2023/12/18 15:01:54;;;;;;;16.30;13.20;;;7.50;99.90;;;;;;4992792;28;20202;-88
2023/12/18 15:05:08;;;;;;;14.50;13.00;;;8.00;99.90;;;;;;5006329;28;20466;-85
2023/12/18 15:14:30;;;;;;;16.02;13.40;;;6.40;99.90;;;;;;4935979;28;20250;-85
2023/12/18 15:17:09;;;;;;;16.27;14.50;;;5.80;99.90;;;;;;4932997;29;20264;-86
2023/12/18 15:19:41;;;;;;;19.33;15.63;;;8.30;99.90;;;;;;4933456;29;20300;-85
2023/12/18 15:22:10;;;;;;;15.60;13.95;;;7.10;99.90;;;;;;4978325;28;20218;-86
2023/12/18 15:24:44;;;;;;;19.58;17.30;;;8.50;99.90;;;;;;4996112;28;20211;-85
2023/12/18 15:27:11;;;;;;;16.60;14.60;;;9.30;99.90;;;;;;5012026;28;20276;-85